Edmonton City Centre, Alberta

4:17 AM MDT on March 31, 2015 (GMT -0600)
Edmonton City Centre | | Change Station
CLOSE
Current Station
Airport
Location: Edmonton City Centre,
Elevation: 2201 ft
Nearby Weather Stations

Elev 2201 ft 53.57 °N, 113.52 °W | Updated 17 minutes ago

Partly Cloudy
Partly Cloudy
43 °F
Feels Like 39 °F
N
7
Wind Variable Wind from ESE

Today is forecast to be nearly the same temperature as yesterday.

Today
High -- | Low -- °F
--% Chance of Precip.
Yesterday
High -- | Low -- °F
Precip. -- in
7:10 AM 8:07 PM
Waxing Gibbous, 86% visible
Pressure 29.67 in
Visibility 9.0 miles
Clouds Few 9400 ft
Windchill 39 °F
Dew Point 27 °F
Humidity 53%
Rainfall 0.00 in
Snow Depth Not available.
UV 0 out of 12
Pollen Not available.
Air Quality Not available.
Flu Activity Not available.
METAR CYXD 311000Z AUTO 11006KT 9SM FEW094 06/M03 A2963 RMK SLP047

More Conditions Fewer Conditions

Pressure 29.67 in
Visibility 9.0 miles
Clouds Few 9400 ft
Windchill 39 °F
Dew Point 27 °F
Humidity 53%
Rainfall 0.00 in
Snow Depth Not available.
UV 0 out of 12
Pollen Not available.
Air Quality Not available.
Flu Activity Not available.
METAR CYXD 311000Z AUTO 11006KT 9SM FEW094 06/M03 A2963 RMK SLP047

More Conditions Fewer Conditions

10-Day Weather Forecast

Almanac

Astronomy

Mar. 31, 2015 Rise Set
Actual Time
Civil Twilight
Nautical Twilight
Astronomical Twilight
Moon
Length of Visible Light
Length of Day
Tomorrow will be .
, % of the Moon is Illuminated

Today's Extremes

Country Highs Country Lows

Community

WunderPhotos

Upload Photos

1,809,733 photos uploaded!

WunderBlogs® & News

Nearby

Air Quality

  Air Quality AQ Index Pollutant
Not available.

Snow Depth

Station Depth Elevation

Earthquake Activity

City Distance Mag. Time & Date
Minimum magnitude displayed is 2.5.

Coastal Water Temperatures

Place Temperature

Stations

Nearby Weather Stations

Station Location Temp. Windchill Dew Point Humidity Wind Precip. Elev Updated Type